Leviticus — WDC2712 — position and weather

sailwx.info

Track history (hours):
 
Tides and Currents Weather Stations Pressure Air Temp Water Temp Dewpoint Dewpoint Depression Visibility Wind Speed Wind Dir Waves Ship Positions

Leviticus

Owner: Kirby Inland Marine, LP, Houston, TX. More information available from US FCC via Universal Licensing System and Coast Guard Vessel Documentation Center.

Last reported at 2017-Feb-11 22:33 UTC. Time now 2017-Feb-22 22:16 UTC.
Position N 32°36' W 091°08'.
Warning: this ship's position is 10 days out of date.

Length 320 m; draft 0.8 m.

Type: . MMSI: 366996690.

Date/timePositionNaut miles runAvg speedWind from/ knotsBaromVisibWave heightAir tempDewpointWater temp
2017-Feb-11 22:33N 32°36' W 091°08'5 4.6
2017-Feb-11 21:22N 32°30' W 091°07'4 5.5
2017-Feb-11 20:33N 32°27' W 091°04'5 4.8
2017-Feb-11 19:33N 32°24' W 090°59'4 3.7
2017-Feb-11 18:33N 32°21' W 090°57'3 3.0
2017-Feb-11 17:33N 32°18' W 090°55'0 0.4
2017-Feb-11 16:33N 32°18' W 090°55'0 0.0
2017-Feb-11 15:33N 32°18' W 090°55'2 2.0
2017-Feb-11 14:33N 32°17' W 090°57'5 5.4
2017-Feb-11 13:33N 32°12' W 090°59'5 4.9
2017-Feb-11 12:33N 32°07' W 091°02'6 3.2
2017-Feb-11 10:33N 32°01' W 091°04'  
Track history (hours):
 
Tides and Currents Weather Stations Pressure Air Temp Water Temp Dewpoint Dewpoint Depression Visibility Wind Speed Wind Dir Waves Ship Positions

Leviticus

Owner: Kirby Inland Marine, LP, Houston, TX. More information available from US FCC via Universal Licensing System and Coast Guard Vessel Documentation Center.

Last reported at 2017-Feb-11 22:33 UTC. Time now 2017-Feb-22 22:16 UTC.
Position N 32°36' W 091°08'.
Warning: this ship's position is 10 days out of date.

Length 320 m; draft 0.8 m.

Type: . MMSI: 366996690.

Date/timePositionNaut miles runAvg speedWind from/ knotsBaromVisibWave heightAir tempDewpointWater temp
2017-Feb-11 22:33N 32°36' W 091°08'5 4.6
2017-Feb-11 21:22N 32°30' W 091°07'4 5.5
2017-Feb-11 20:33N 32°27' W 091°04'5 4.8
2017-Feb-11 19:33N 32°24' W 090°59'4 3.7
2017-Feb-11 18:33N 32°21' W 090°57'3 3.0
2017-Feb-11 17:33N 32°18' W 090°55'0 0.4
2017-Feb-11 16:33N 32°18' W 090°55'0 0.0
2017-Feb-11 15:33N 32°18' W 090°55'2 2.0
2017-Feb-11 14:33N 32°17' W 090°57'5 5.4
2017-Feb-11 13:33N 32°12' W 090°59'5 4.9
2017-Feb-11 12:33N 32°07' W 091°02'6 3.2
2017-Feb-11 10:33N 32°01' W 091°04'  

Dump ship's entire track history